Weather History for KCXP - January, 2014

Change the Weather History Date:

Tuesday, January 14, 2014

  Actual Average Record
Temperature  
Mean Temperature 36 °F -  
Max Temperature 55 °F 47 °F 60 °F (2012)
Min Temperature 17 °F 22 °F 1 °F (2013)
Degree Days  
Heating Degree Days 29    
Moisture  
Dew Point 16 °F    
Average Humidity 54    
Maximum Humidity 93    
Minimum Humidity 20    
Precipitation  
Precipitation 0.00 in - - ()
Sea Level Pressure  
Sea Level Pressure 30.65 in    
Wind  
Wind Speed 2 mph (NE)    
Max Wind Speed 16 mph    
Max Gust Speed 18 mph    
Visibility 10 miles    
Events      
Averages and records for this station are not official NWS values.
T = Trace of Precipitation, MM = Missing Value Source: NWS Daily Summary

Daily Weather History Graph

Daily Weather History Graph

Search for Another Location

Airport or City:

Trip Planner

Search our weather history database for the weather conditions in past years. The results will help you decide how hot, cold, wet, or windy it might be!

Date:

Astronomy

Jan. 14, 2014 Rise Set
Actual Time 7:17 AM PST 4:59 PM PST
Civil Twilight 6:47 AM PST 5:28 PM PST
Nautical Twilight 6:14 AM PST 6:01 PM PST
Astronomical Twilight 5:42 AM PST 6:33 PM PST
Moon 4:08 PM PST (1/14) 5:55 AM PST (1/14)
Length of Visible Light 10h 41m
Length of Day
9h 42m
Waxing Gibbous, 98% of the Moon is Illuminated
Jan 14
Waxing Gibbous
Jan 15
Full
Jan 23
Last Quarter
Jan 30
New
Feb 6
First Quarter

Hourly Weather History & Observations

Time (PST) Temp. Windchill Dew Point Humidity Pressure Visibility Wind Dir Wind Speed Gust Speed Precip Events Conditions
12:15 AM 24.8 °F - 17.6 °F 74% 30.63 in 10.0 mi Calm Calm - N/A   Clear
12:35 AM 26.6 °F 22.6 °F 17.6 °F 69% 30.64 in 10.0 mi NW 3.5 mph - N/A   Clear
12:55 AM 26.6 °F 22.6 °F 17.6 °F 69% 30.63 in 10.0 mi SSE 3.5 mph - N/A   Clear
1:15 AM 23.0 °F 18.4 °F 17.6 °F 80% 30.64 in 10.0 mi ENE 3.5 mph - N/A   Clear
1:35 AM 24.8 °F 19.1 °F 17.6 °F 74% 30.64 in 10.0 mi NW 4.6 mph - N/A   Clear
1:55 AM 24.8 °F - 17.6 °F 74% 30.65 in 10.0 mi Calm Calm - N/A   Clear
2:15 AM 24.8 °F 20.5 °F 17.6 °F 74% 30.65 in 10.0 mi NNW 3.5 mph - N/A   Clear
2:35 AM 21.2 °F - 17.6 °F 86% 30.65 in 10.0 mi Calm Calm - N/A   Clear
2:55 AM 21.2 °F - 15.8 °F 80% 30.65 in 10.0 mi Calm Calm - N/A   Clear
3:15 AM 23.0 °F - 17.6 °F 80% 30.65 in 10.0 mi Calm Calm - N/A   Clear
3:35 AM 23.0 °F 17.0 °F 15.8 °F 74% 30.65 in 10.0 mi North 4.6 mph - N/A   Clear
3:55 AM 24.8 °F 19.1 °F 17.6 °F 74% 30.65 in 10.0 mi NW 4.6 mph - N/A   Clear
4:15 AM 23.0 °F - 15.8 °F 74% 30.65 in 10.0 mi Calm Calm - N/A   Clear
4:35 AM 21.2 °F - 15.8 °F 80% 30.66 in 10.0 mi Calm Calm - N/A   Clear
4:55 AM 19.4 °F - 15.8 °F 86% 30.66 in 10.0 mi Calm Calm - N/A   Clear
5:15 AM 19.4 °F - 15.8 °F 86% 30.66 in 10.0 mi Calm Calm - N/A   Clear
5:35 AM 19.4 °F 12.8 °F 15.8 °F 86% 30.67 in 10.0 mi SE 4.6 mph - N/A   Clear
5:55 AM 17.6 °F - 15.8 °F 93% 30.67 in 10.0 mi Calm Calm - N/A   Clear
6:15 AM 19.4 °F - 15.8 °F 86% 30.67 in 10.0 mi Calm Calm - N/A   Clear
6:35 AM 19.4 °F - 15.8 °F 86% 30.68 in 10.0 mi Calm Calm - N/A   Clear
6:55 AM 19.4 °F - 15.8 °F 86% 30.68 in 10.0 mi Calm Calm - N/A   Clear
7:15 AM 19.4 °F - 15.8 °F 86% 30.69 in 10.0 mi Calm Calm - N/A   Clear
7:35 AM 19.4 °F 14.3 °F 14.0 °F 80% 30.69 in 10.0 mi NNW 3.5 mph - N/A   Clear
7:55 AM 21.2 °F - 15.8 °F 80% 30.70 in 10.0 mi Calm Calm - N/A   Clear
8:15 AM 23.0 °F - 15.8 °F 74% 30.71 in 10.0 mi Calm Calm - N/A   Clear
8:35 AM 24.8 °F - 15.8 °F 69% 30.72 in 10.0 mi Calm Calm - N/A   Clear
8:55 AM 26.6 °F 22.6 °F 15.8 °F 64% 30.72 in 10.0 mi NW 3.5 mph - N/A   Clear
9:15 AM 28.4 °F - 15.8 °F 59% 30.71 in 10.0 mi Calm Calm - N/A   Clear
9:35 AM 30.2 °F 26.7 °F 15.8 °F 55% 30.71 in 10.0 mi South 3.5 mph - N/A   Clear
9:55 AM 32.0 °F - 17.6 °F 55% 30.71 in 10.0 mi Calm Calm - N/A   Clear
10:15 AM 32.0 °F - 15.8 °F 51% 30.71 in 10.0 mi Calm Calm - N/A   Clear
10:35 AM 37.4 °F - 15.8 °F 41% 30.71 in 10.0 mi Calm Calm - N/A   Clear
10:55 AM 39.2 °F - 14.0 °F 36% 30.70 in 10.0 mi Calm Calm - N/A   Clear
11:15 AM 39.2 °F - 14.0 °F 36% 30.70 in 10.0 mi Calm Calm - N/A   Clear
11:35 AM 41.0 °F - 14.0 °F 33% 30.69 in 10.0 mi Calm Calm - N/A   Clear
11:55 AM 42.8 °F - 14.0 °F 31% 30.67 in 10.0 mi Calm Calm - N/A   Clear
12:15 PM 44.6 °F - 14.0 °F 29% 30.66 in 10.0 mi Calm Calm - N/A   Clear
12:35 PM 48.2 °F - 14.0 °F 25% 30.65 in 10.0 mi Calm Calm - N/A   Partly Cloudy
12:55 PM 50.0 °F - 14.0 °F 24% 30.63 in 10.0 mi Calm Calm - N/A   Partly Cloudy
1:15 PM 50.0 °F - 14.0 °F 24% 30.62 in 10.0 mi Calm Calm - N/A   Partly Cloudy
1:35 PM 53.6 °F - 15.8 °F 22% 30.61 in 10.0 mi East 5.8 mph - N/A   Partly Cloudy
1:55 PM 53.6 °F - 15.8 °F 22% 30.60 in 10.0 mi East 8.1 mph - N/A   Partly Cloudy
2:15 PM 55.4 °F - 15.8 °F 21% 30.60 in 10.0 mi East 9.2 mph - N/A   Partly Cloudy
2:35 PM 55.4 °F - 14.0 °F 20% 30.60 in 10.0 mi East 11.5 mph - N/A   Partly Cloudy
2:55 PM 53.6 °F - 14.0 °F 21% 30.60 in 10.0 mi East 16.1 mph - N/A   Mostly Cloudy
3:15 PM 53.6 °F - 14.0 °F 21% 30.60 in 10.0 mi ENE 11.5 mph - N/A   Scattered Clouds
3:35 PM 53.6 °F - 14.0 °F 21% 30.60 in 10.0 mi East 12.7 mph - N/A   Partly Cloudy
3:55 PM 53.6 °F - 14.0 °F 21% 30.60 in 10.0 mi ENE 15.0 mph - N/A   Scattered Clouds
4:15 PM 50.0 °F - 14.0 °F 24% 30.60 in 10.0 mi East 11.5 mph 18.4 mph N/A   Scattered Clouds
4:35 PM 50.0 °F - 12.2 °F 22% 30.61 in 10.0 mi ENE 11.5 mph - N/A   Partly Cloudy
4:55 PM 46.4 °F 42.4 °F 14.0 °F 27% 30.61 in 10.0 mi ENE 8.1 mph - N/A   Partly Cloudy
5:15 PM 44.6 °F 39.7 °F 15.8 °F 31% 30.61 in 10.0 mi ENE 9.2 mph - N/A   Clear
5:35 PM 44.6 °F 41.4 °F 15.8 °F 31% 30.61 in 10.0 mi NNE 5.8 mph - N/A   Clear
5:55 PM 44.6 °F - 15.8 °F 31% 30.61 in 10.0 mi Calm Calm - N/A   Clear
6:15 PM 37.4 °F 32.8 °F 15.8 °F 41% 30.61 in 10.0 mi NNW 5.8 mph - N/A   Clear
6:35 PM 37.4 °F - 15.8 °F 41% 30.62 in 10.0 mi Calm Calm - N/A   Clear
6:55 PM 35.6 °F - 14.0 °F 41% 30.61 in 10.0 mi Calm Calm - N/A   Clear
7:15 PM 33.8 °F - 15.8 °F 48% 30.62 in 10.0 mi Calm Calm - N/A   Clear
7:35 PM 33.8 °F - 15.8 °F 48% 30.62 in 10.0 mi Calm Calm - N/A   Clear
7:55 PM 33.8 °F 30.8 °F 15.8 °F 48% 30.62 in 10.0 mi NNW 3.5 mph - N/A   Clear
8:15 PM 30.2 °F - 15.8 °F 55% 30.62 in 10.0 mi Calm Calm - N/A   Clear
8:35 PM 32.0 °F - 15.8 °F 51% 30.63 in 10.0 mi Calm Calm - N/A   Clear
8:55 PM 30.2 °F - 15.8 °F 55% 30.63 in 10.0 mi Calm Calm - N/A   Clear
9:15 PM 32.0 °F - 15.8 °F 51% 30.63 in 10.0 mi Calm Calm - N/A   Clear
9:35 PM 30.2 °F - 15.8 °F 55% 30.63 in 10.0 mi Calm Calm - N/A   Clear
9:55 PM 30.2 °F - 15.8 °F 55% 30.63 in 10.0 mi Calm Calm - N/A   Clear
10:15 PM 28.4 °F - 15.8 °F 59% 30.63 in 10.0 mi Calm Calm - N/A   Clear
10:35 PM 28.4 °F - 15.8 °F 59% 30.63 in 10.0 mi Calm Calm - N/A   Clear
10:55 PM 28.4 °F - 15.8 °F 59% 30.63 in 10.0 mi Calm Calm - N/A   Clear
11:15 PM 26.6 °F 22.6 °F 15.8 °F 64% 30.63 in 10.0 mi NW 3.5 mph - N/A   Clear
11:35 PM 26.6 °F 22.6 °F 15.8 °F 64% 30.63 in 10.0 mi WSW 3.5 mph - N/A   Clear
11:55 PM 28.4 °F - 15.8 °F 59% 30.62 in 10.0 mi Calm Calm - N/A   Clear